createdAt,value
2023-01-27T00:01:43.893Z,-4.59
2023-01-27T00:04:12.318Z,-4.62
2023-01-27T00:06:45.307Z,-4.63
2023-01-27T00:09:18.127Z,-4.62
2023-01-27T00:12:05.292Z,-4.60
2023-01-27T00:14:34.180Z,-4.62
2023-01-27T00:17:02.592Z,-4.67
2023-01-27T00:19:30.738Z,-4.69
2023-01-27T00:22:17.474Z,-4.67
2023-01-27T00:24:46.194Z,-4.70
2023-01-27T00:27:14.963Z,-4.70
2023-01-27T00:29:43.156Z,-4.72
2023-01-27T00:32:29.926Z,-4.72
2023-01-27T00:34:57.988Z,-4.72
2023-01-27T00:37:26.240Z,-4.77
2023-01-27T00:39:54.947Z,-4.78
2023-01-27T00:42:23.061Z,-4.81
2023-01-27T00:45:13.474Z,-4.78
2023-01-27T00:47:43.222Z,-4.82
2023-01-27T00:50:11.752Z,-4.83
2023-01-27T00:52:40.323Z,-4.82
2023-01-27T00:55:09.181Z,-4.85
2023-01-27T00:57:37.991Z,-4.86
2023-01-27T01:00:07.075Z,-4.87
2023-01-27T01:02:35.870Z,-4.89
2023-01-27T01:05:04.434Z,-4.89
2023-01-27T01:07:32.587Z,-4.91
2023-01-27T01:10:00.728Z,-4.94
2023-01-27T01:12:28.967Z,-4.96
2023-01-27T01:14:59.096Z,-5.04
2023-01-27T01:17:27.521Z,-5.04
2023-01-27T01:19:56.027Z,-5.08
2023-01-27T01:22:24.194Z,-5.11
2023-01-27T01:24:55.056Z,-5.12
2023-01-27T01:27:25.349Z,-5.12
2023-01-27T01:29:57.491Z,-5.14
2023-01-27T01:32:25.491Z,-5.19
2023-01-27T01:35:00.534Z,-5.22
2023-01-27T01:37:30.369Z,-5.23
2023-01-27T01:40:01.784Z,-5.21
2023-01-27T01:42:53.742Z,-5.23
2023-01-27T01:45:37.199Z,-5.25
2023-01-27T01:48:14.813Z,-5.25
2023-01-27T01:50:46.693Z,-5.30
2023-01-27T01:53:15.209Z,-5.34
2023-01-27T01:55:43.627Z,-5.38
2023-01-27T01:58:13.528Z,-5.41
2023-01-27T02:00:42.499Z,-5.41
2023-01-27T02:03:11.080Z,-5.44
2023-01-27T02:05:44.495Z,-5.49
2023-01-27T02:08:30.366Z,-5.49
2023-01-27T02:10:59.085Z,-5.49
2023-01-27T02:13:27.547Z,-5.53
2023-01-27T02:15:56.297Z,-5.50
2023-01-27T02:18:24.807Z,-5.47
2023-01-27T02:20:54.533Z,-5.46
2023-01-27T02:23:29.391Z,-5.50
2023-01-27T02:26:08.876Z,-5.54
2023-01-27T02:28:40.096Z,-5.48
2023-01-27T02:31:08.924Z,-5.43
2023-01-27T02:33:37.750Z,-5.42
2023-01-27T02:36:08.783Z,-5.38
2023-01-27T02:38:41.086Z,-5.32
2023-01-27T02:41:26.567Z,-5.27
2023-01-27T02:43:56.735Z,-5.19
2023-01-27T02:46:25.461Z,-5.13
2023-01-27T02:48:53.889Z,-5.11
2023-01-27T02:51:22.097Z,-5.11
2023-01-27T02:53:50.335Z,-5.12
2023-01-27T02:56:18.594Z,-5.01
2023-01-27T02:58:47.327Z,-4.89
2023-01-27T03:01:16.007Z,-4.77
2023-01-27T03:03:47.734Z,-4.73
2023-01-27T03:06:18.472Z,-4.77
2023-01-27T03:08:46.644Z,-4.81
2023-01-27T03:11:37.252Z,-4.89
2023-01-27T03:14:05.748Z,-5.02
2023-01-27T03:16:53.141Z,-5.13
2023-01-27T03:19:21.256Z,-5.21
2023-01-27T03:21:51.609Z,-5.28
2023-01-27T03:24:21.401Z,-5.27
2023-01-27T03:26:49.695Z,-4.98
2023-01-27T03:29:39.099Z,-4.65
2023-01-27T03:32:07.180Z,-4.45
2023-01-27T03:34:35.372Z,-4.24
2023-01-27T03:37:23.392Z,-4.11
2023-01-27T03:40:10.110Z,-4.03
2023-01-27T03:42:56.917Z,-3.94
2023-01-27T03:45:45.983Z,-3.83
2023-01-27T03:48:21.201Z,-3.78
2023-01-27T03:50:58.866Z,-3.73
2023-01-27T03:53:26.907Z,-3.70
2023-01-27T03:55:55.043Z,-3.67
2023-01-27T03:58:26.943Z,-3.62
2023-01-27T04:01:00.445Z,-3.56
2023-01-27T04:03:49.689Z,-3.55
2023-01-27T04:06:48.061Z,-3.52
2023-01-27T04:09:24.979Z,-3.54
2023-01-27T04:11:56.894Z,-3.59
2023-01-27T04:14:32.527Z,-3.55
2023-01-27T04:17:11.211Z,-3.51
2023-01-27T04:19:39.918Z,-3.48
2023-01-27T04:22:08.817Z,-3.44
2023-01-27T04:24:39.580Z,-3.40
2023-01-27T04:27:13.854Z,-3.47
2023-01-27T04:29:43.024Z,-3.41
2023-01-27T04:32:13.806Z,-3.39
2023-01-27T04:34:42.598Z,-3.40
2023-01-27T04:37:12.769Z,-3.41
2023-01-27T04:39:42.401Z,-3.42
2023-01-27T04:42:11.017Z,-3.47
2023-01-27T04:44:39.164Z,-3.47
2023-01-27T04:47:07.344Z,-3.36
2023-01-27T04:49:36.432Z,-3.32
2023-01-27T04:52:04.416Z,-3.30
2023-01-27T04:54:32.458Z,-3.26
2023-01-27T04:57:03.983Z,-3.30
2023-01-27T04:59:32.149Z,-3.37
2023-01-27T05:02:00.279Z,-3.33
2023-01-27T05:04:31.920Z,-3.29
2023-01-27T05:07:00.504Z,-3.30
2023-01-27T05:09:29.284Z,-3.33
2023-01-27T05:11:57.692Z,-3.34
2023-01-27T05:14:27.508Z,-3.27
2023-01-27T05:16:57.021Z,-3.14
2023-01-27T05:19:24.951Z,-3.24
2023-01-27T05:21:55.880Z,-3.21
2023-01-27T05:24:25.792Z,-3.17
2023-01-27T05:26:58.781Z,-3.12
2023-01-27T05:29:29.113Z,-3.11
2023-01-27T05:31:57.511Z,-3.07
2023-01-27T05:34:26.130Z,-3.04
2023-01-27T05:36:54.279Z,-2.99
2023-01-27T05:39:22.479Z,-2.92
2023-01-27T05:41:50.635Z,-2.90
2023-01-27T05:44:18.741Z,-2.93
2023-01-27T05:46:46.932Z,-2.99
2023-01-27T05:49:15.065Z,-2.98
2023-01-27T05:51:42.998Z,-2.94
2023-01-27T05:54:11.212Z,-2.87
2023-01-27T05:56:39.805Z,-2.87
2023-01-27T05:59:08.467Z,-2.87
2023-01-27T06:01:38.471Z,-2.89
2023-01-27T06:04:07.061Z,-2.80
2023-01-27T06:06:35.442Z,-2.78
2023-01-27T06:09:04.367Z,-2.92
2023-01-27T06:11:32.805Z,-2.91
2023-01-27T06:14:02.211Z,-2.86
2023-01-27T06:16:30.767Z,-2.79
2023-01-27T06:18:59.351Z,-2.79
2023-01-27T06:21:27.580Z,-2.80
2023-01-27T06:23:56.397Z,-2.69
2023-01-27T06:26:27.770Z,-2.60
2023-01-27T06:28:57.900Z,-2.56
2023-01-27T06:31:27.980Z,-2.54
2023-01-27T06:33:56.852Z,-2.55
2023-01-27T06:36:25.223Z,-2.53
2023-01-27T06:38:53.354Z,-2.47
2023-01-27T06:41:21.609Z,-2.41
2023-01-27T06:43:49.639Z,-2.30
2023-01-27T06:46:17.774Z,-2.19
2023-01-27T06:48:48.868Z,-2.03
2023-01-27T06:51:20.443Z,-1.89
2023-01-27T06:53:49.113Z,-1.78
2023-01-27T06:56:17.662Z,-1.72
2023-01-27T06:58:46.381Z,-1.78
2023-01-27T07:01:14.864Z,-1.82
2023-01-27T07:03:44.834Z,-1.71
2023-01-27T07:06:15.278Z,-1.75
2023-01-27T07:08:46.083Z,-1.72
2023-01-27T07:11:14.842Z,-1.57
2023-01-27T07:13:43.706Z,-1.44
2023-01-27T07:16:11.769Z,-1.30
2023-01-27T07:18:40.525Z,-1.23
2023-01-27T07:21:09.967Z,-1.36
2023-01-27T07:23:38.927Z,-1.28
2023-01-27T07:26:19.283Z,-1.07
2023-01-27T07:28:52.838Z,-1.03
2023-01-27T07:31:21.152Z,-0.89
2023-01-27T07:33:49.574Z,-0.92
2023-01-27T07:36:18.398Z,-0.88
2023-01-27T07:38:50.645Z,-0.94
2023-01-27T07:41:20.538Z,-0.87
2023-01-27T07:43:50.203Z,-0.88
2023-01-27T07:46:19.633Z,-0.88
2023-01-27T07:48:47.746Z,-0.72
2023-01-27T07:51:23.980Z,-0.57
2023-01-27T07:53:55.045Z,-0.56
2023-01-27T07:56:23.502Z,-0.42
2023-01-27T07:58:54.933Z,-0.54
2023-01-27T08:01:23.518Z,-0.49
2023-01-27T08:03:51.571Z,-0.55
2023-01-27T08:06:22.347Z,-0.38
2023-01-27T08:08:50.749Z,-0.45
2023-01-27T08:11:23.676Z,-0.41
2023-01-27T08:13:54.025Z,-0.42
2023-01-27T08:16:25.190Z,-0.11
2023-01-27T08:18:54.275Z,0.07
2023-01-27T08:21:22.658Z,0.29
2023-01-27T08:23:50.644Z,0.33
2023-01-27T08:26:18.706Z,0.42
2023-01-27T08:28:46.907Z,0.39
2023-01-27T08:31:17.298Z,0.48
2023-01-27T08:33:50.288Z,0.56
2023-01-27T08:36:20.161Z,0.57
2023-01-27T08:38:49.884Z,0.55
2023-01-27T08:41:23.785Z,0.63
2023-01-27T08:43:52.117Z,0.82
2023-01-27T08:46:20.243Z,0.82
2023-01-27T08:48:50.583Z,0.88
2023-01-27T08:51:19.009Z,0.59
2023-01-27T08:53:47.378Z,0.52
2023-01-27T08:56:16.287Z,0.58
2023-01-27T08:58:47.628Z,0.57
2023-01-27T09:01:16.792Z,0.63
2023-01-27T09:03:45.179Z,0.60
2023-01-27T09:06:13.941Z,0.74
2023-01-27T09:08:42.348Z,0.89
2023-01-27T09:11:16.071Z,0.99
2023-01-27T09:13:44.368Z,0.97
2023-01-27T09:16:12.460Z,1.21
2023-01-27T09:18:41.654Z,1.14
2023-01-27T09:21:11.130Z,1.13
2023-01-27T09:23:39.589Z,1.18
2023-01-27T09:26:08.387Z,1.29
2023-01-27T09:28:36.570Z,1.30
2023-01-27T09:31:05.359Z,1.31
2023-01-27T09:33:33.930Z,1.40
2023-01-27T09:36:12.819Z,1.32
2023-01-27T09:38:55.912Z,1.36
2023-01-27T09:41:46.239Z,1.48
2023-01-27T09:44:36.163Z,1.46
2023-01-27T09:47:29.583Z,1.22
2023-01-27T09:50:35.835Z,1.21
2023-01-27T09:53:14.500Z,1.11
2023-01-27T09:55:48.898Z,1.29
2023-01-27T09:58:36.436Z,1.61
2023-01-27T10:01:22.874Z,1.82
2023-01-27T10:04:13.902Z,1.99
2023-01-27T10:06:51.096Z,2.04
2023-01-27T10:09:35.965Z,1.96
2023-01-27T10:12:25.988Z,1.99
2023-01-27T10:15:17.342Z,1.86
2023-01-27T10:17:57.608Z,1.92
2023-01-27T10:20:28.728Z,2.04
2023-01-27T10:23:25.067Z,2.16
2023-01-27T10:26:24.821Z,2.08
2023-01-27T10:29:03.551Z,2.07
2023-01-27T10:31:53.974Z,2.17
2023-01-27T10:34:34.045Z,2.10
2023-01-27T10:37:25.502Z,2.23
2023-01-27T10:40:23.669Z,2.25
2023-01-27T10:43:35.381Z,2.43
2023-01-27T10:46:31.012Z,2.53
2023-01-27T10:49:15.372Z,2.55
2023-01-27T10:51:47.850Z,2.44
2023-01-27T10:54:27.878Z,2.08
2023-01-27T10:57:24.830Z,2.09
2023-01-27T11:00:35.750Z,2.00
2023-01-27T11:03:07.169Z,2.08
2023-01-27T11:05:50.448Z,1.94
2023-01-27T11:08:22.224Z,1.97
2023-01-27T11:11:14.887Z,2.14
2023-01-27T11:13:43.950Z,2.15
2023-01-27T11:16:19.971Z,2.16
2023-01-27T11:18:55.881Z,2.25
2023-01-27T11:21:27.908Z,2.23
2023-01-27T11:23:57.584Z,2.22
2023-01-27T11:26:31.844Z,2.15
2023-01-27T11:29:13.833Z,2.15
2023-01-27T11:32:02.222Z,2.12
2023-01-27T11:34:33.327Z,2.17
2023-01-27T11:37:08.715Z,2.15
2023-01-27T11:39:37.113Z,2.23
2023-01-27T11:42:05.344Z,2.19
2023-01-27T11:44:35.138Z,2.05
2023-01-27T11:47:06.771Z,1.98
2023-01-27T11:49:39.993Z,1.93
2023-01-27T11:52:17.552Z,2.03
2023-01-27T11:54:52.438Z,2.15
2023-01-27T11:57:23.418Z,2.20
2023-01-27T11:59:59.883Z,2.18
2023-01-27T12:02:39.406Z,2.24
2023-01-27T12:05:07.842Z,2.31
2023-01-27T12:07:58.320Z,2.37
2023-01-27T12:10:42.589Z,2.38
2023-01-27T12:13:20.974Z,2.47
2023-01-27T12:15:55.095Z,2.48
2023-01-27T12:18:26.895Z,2.52
2023-01-27T12:21:02.784Z,2.49
2023-01-27T12:23:33.190Z,2.53
2023-01-27T12:26:05.998Z,2.68
2023-01-27T12:28:38.835Z,2.94
2023-01-27T12:31:32.437Z,3.08
2023-01-27T12:34:17.636Z,2.99
2023-01-27T12:36:46.247Z,2.97
2023-01-27T12:39:47.126Z,2.99
2023-01-27T12:42:48.037Z,2.96
2023-01-27T12:45:31.505Z,2.96
2023-01-27T12:48:19.278Z,2.95
2023-01-27T12:50:52.462Z,3.06
2023-01-27T12:53:28.290Z,3.21
2023-01-27T12:56:15.629Z,3.15
2023-01-27T12:58:58.585Z,2.93
2023-01-27T13:01:30.672Z,2.83
2023-01-27T13:04:05.062Z,2.89
2023-01-27T13:06:59.434Z,2.92
2023-01-27T13:09:35.562Z,2.85
2023-01-27T13:12:30.914Z,2.66
2023-01-27T13:15:06.067Z,2.46
2023-01-27T13:17:48.477Z,2.34
2023-01-27T13:20:27.244Z,2.23
2023-01-27T13:23:02.693Z,2.14
2023-01-27T13:25:39.183Z,2.03
2023-01-27T13:28:09.397Z,1.92
2023-01-27T13:30:40.817Z,1.85
2023-01-27T13:33:31.790Z,1.83
2023-01-27T13:36:07.428Z,1.73
2023-01-27T13:39:30.163Z,1.68
2023-01-27T13:42:25.454Z,1.60
2023-01-27T13:45:04.799Z,1.54
2023-01-27T13:47:47.916Z,1.50
2023-01-27T13:51:00.597Z,1.48
2023-01-27T13:53:28.865Z,1.45
2023-01-27T13:56:25.415Z,1.49
2023-01-27T13:59:30.429Z,1.40
2023-01-27T14:02:17.674Z,1.35
2023-01-27T14:05:20.922Z,1.28
2023-01-27T14:08:15.038Z,1.27
2023-01-27T14:11:06.376Z,1.13
2023-01-27T14:13:59.463Z,0.99
2023-01-27T14:17:05.643Z,0.87
2023-01-27T14:20:20.718Z,0.74
2023-01-27T14:23:19.007Z,0.65
2023-01-27T14:26:10.488Z,0.61
2023-01-27T14:29:03.400Z,0.53
2023-01-27T14:31:46.611Z,0.44
2023-01-27T14:34:33.141Z,0.36
2023-01-27T14:37:07.072Z,0.33
2023-01-27T14:39:58.219Z,0.35
2023-01-27T14:42:52.345Z,0.34
2023-01-27T14:45:48.495Z,0.28
2023-01-27T14:48:58.812Z,0.25
2023-01-27T14:51:34.588Z,0.21
2023-01-27T14:54:17.708Z,0.14
2023-01-27T14:57:21.740Z,0.10
2023-01-27T15:00:18.015Z,0.09
2023-01-27T15:02:46.135Z,0.14
2023-01-27T15:05:24.996Z,0.08
2023-01-27T15:08:12.377Z,0.04
2023-01-27T15:10:59.914Z,0.02
2023-01-27T15:14:00.876Z,0.01
2023-01-27T15:16:56.932Z,0.00
2023-01-27T15:20:07.671Z,-0.03
2023-01-27T15:22:36.508Z,-0.10
2023-01-27T15:25:14.365Z,-0.12
2023-01-27T15:27:44.773Z,-0.09
2023-01-27T15:30:23.094Z,-0.14
2023-01-27T15:32:52.363Z,-0.19
2023-01-27T15:35:41.781Z,-0.23
2023-01-27T15:38:21.040Z,-0.33
2023-01-27T15:41:12.426Z,-0.34
2023-01-27T15:43:44.434Z,-0.31
2023-01-27T15:46:25.024Z,-0.33
2023-01-27T15:48:58.224Z,-0.39
2023-01-27T15:51:26.784Z,-0.42
2023-01-27T15:53:57.985Z,-0.45
2023-01-27T15:56:47.277Z,-0.48
2023-01-27T15:59:22.364Z,-0.51
2023-01-27T16:02:00.600Z,-0.50
2023-01-27T16:04:36.615Z,-0.48
2023-01-27T16:07:05.852Z,-0.47
2023-01-27T16:09:46.460Z,-0.49
2023-01-27T16:12:24.031Z,-0.53
2023-01-27T16:15:01.647Z,-0.58
2023-01-27T16:17:33.801Z,-0.61
2023-01-27T16:20:23.974Z,-0.60
2023-01-27T16:23:05.912Z,-0.58
2023-01-27T16:25:43.415Z,-0.65
2023-01-27T16:28:28.163Z,-0.66
2023-01-27T16:31:06.842Z,-0.77
2023-01-27T16:33:39.343Z,-0.79
2023-01-27T16:36:30.784Z,-0.80
2023-01-27T16:39:07.870Z,-0.81
2023-01-27T16:41:38.553Z,-0.83
2023-01-27T16:44:31.392Z,-0.85
2023-01-27T16:47:14.880Z,-0.87
2023-01-27T16:49:51.065Z,-0.87
2023-01-27T16:52:32.427Z,-0.88
2023-01-27T16:55:19.557Z,-0.87
2023-01-27T16:57:47.777Z,-0.86
2023-01-27T17:00:27.478Z,-0.81
2023-01-27T17:02:59.472Z,-0.83
2023-01-27T17:05:28.119Z,-0.88
2023-01-27T17:08:26.690Z,-0.93
2023-01-27T17:11:16.679Z,-0.98
2023-01-27T17:13:53.845Z,-0.98
2023-01-27T17:16:35.483Z,-1.02
2023-01-27T17:19:27.598Z,-1.06
2023-01-27T17:22:03.820Z,-1.05
2023-01-27T17:24:35.180Z,-1.09
2023-01-27T17:27:05.619Z,-1.11
2023-01-27T17:29:43.304Z,-1.12
2023-01-27T17:32:29.069Z,-1.18
2023-01-27T17:35:00.058Z,-1.17
2023-01-27T17:37:31.368Z,-1.20
2023-01-27T17:40:01.926Z,-1.22
2023-01-27T17:42:32.703Z,-1.26
2023-01-27T17:45:37.270Z,-1.27
2023-01-27T17:48:08.185Z,-1.30
2023-01-27T17:50:38.250Z,-1.35
2023-01-27T17:53:11.598Z,-1.40
2023-01-27T17:55:39.913Z,-1.40
2023-01-27T17:58:15.815Z,-1.45
2023-01-27T18:00:44.647Z,-1.47
2023-01-27T18:03:28.567Z,-1.54
2023-01-27T18:05:57.473Z,-1.59
2023-01-27T18:08:26.018Z,-1.63
2023-01-27T18:10:54.134Z,-1.63
2023-01-27T18:13:27.528Z,-1.71
2023-01-27T18:16:13.274Z,-1.73
2023-01-27T18:18:50.209Z,-1.82
2023-01-27T18:21:26.278Z,-1.82
2023-01-27T18:23:59.764Z,-1.84
2023-01-27T18:26:49.065Z,-1.86
2023-01-27T18:29:23.814Z,-1.86
2023-01-27T18:31:57.986Z,-1.90
2023-01-27T18:34:33.625Z,-1.88
2023-01-27T18:37:21.346Z,-1.89
2023-01-27T18:39:50.493Z,-1.90
2023-01-27T18:42:20.547Z,-1.91
2023-01-27T18:44:55.539Z,-1.95
2023-01-27T18:47:30.632Z,-2.01
2023-01-27T18:50:12.992Z,-2.03
2023-01-27T18:52:42.602Z,-2.05
2023-01-27T18:55:27.263Z,-2.09
2023-01-27T18:58:00.579Z,-2.13
2023-01-27T19:00:36.349Z,-2.16
2023-01-27T19:03:06.266Z,-2.13
2023-01-27T19:05:36.637Z,-2.08
2023-01-27T19:08:11.395Z,-2.09
2023-01-27T19:10:41.046Z,-2.13
2023-01-27T19:13:14.974Z,-2.19
2023-01-27T19:15:50.329Z,-2.22
2023-01-27T19:18:45.566Z,-2.24
2023-01-27T19:21:16.345Z,-2.22
2023-01-27T19:23:46.333Z,-2.24
2023-01-27T19:26:24.581Z,-2.28
2023-01-27T19:28:55.822Z,-2.29
2023-01-27T19:31:24.330Z,-2.33
2023-01-27T19:33:52.509Z,-2.35
2023-01-27T19:36:25.179Z,-2.36
2023-01-27T19:39:09.737Z,-2.40
2023-01-27T19:41:38.176Z,-2.41
2023-01-27T19:44:06.506Z,-2.44
2023-01-27T19:46:35.549Z,-2.49
2023-01-27T19:49:08.920Z,-2.43
2023-01-27T19:51:42.328Z,-2.39
2023-01-27T19:54:10.758Z,-2.39
2023-01-27T19:56:39.159Z,-2.41
2023-01-27T19:59:07.378Z,-2.43
2023-01-27T20:01:35.765Z,-2.43
2023-01-27T20:04:04.133Z,-2.46
2023-01-27T20:06:34.473Z,-2.48
2023-01-27T20:09:07.412Z,-2.53
2023-01-27T20:11:40.068Z,-2.57
2023-01-27T20:14:13.997Z,-2.59
2023-01-27T20:16:43.626Z,-2.59
2023-01-27T20:19:16.273Z,-2.60
2023-01-27T20:21:46.010Z,-2.62
2023-01-27T20:24:18.714Z,-2.66
2023-01-27T20:26:48.577Z,-2.67
2023-01-27T20:29:19.361Z,-2.75
2023-01-27T20:31:49.909Z,-2.78
2023-01-27T20:34:18.823Z,-2.76
2023-01-27T20:36:47.461Z,-2.79
2023-01-27T20:39:19.021Z,-2.79
2023-01-27T20:41:51.829Z,-2.80
2023-01-27T20:44:21.168Z,-2.82
2023-01-27T20:46:49.853Z,-2.86
2023-01-27T20:49:18.703Z,-2.88
2023-01-27T20:51:47.543Z,-2.90
2023-01-27T20:54:16.421Z,-2.89
2023-01-27T20:56:44.750Z,-2.93
2023-01-27T20:59:13.092Z,-2.98
2023-01-27T21:01:41.485Z,-2.97
2023-01-27T21:04:09.987Z,-3.01
2023-01-27T21:06:39.638Z,-3.06
2023-01-27T21:09:10.090Z,-3.12
2023-01-27T21:11:41.209Z,-3.19
2023-01-27T21:14:11.479Z,-3.21
2023-01-27T21:16:39.624Z,-3.22
2023-01-27T21:19:08.763Z,-3.26
2023-01-27T21:21:37.830Z,-3.31
2023-01-27T21:24:07.051Z,-3.34
2023-01-27T21:26:38.827Z,-3.42
2023-01-27T21:29:07.792Z,-3.47
2023-01-27T21:31:38.590Z,-3.49
2023-01-27T21:34:07.141Z,-3.51
2023-01-27T21:36:36.797Z,-3.58
2023-01-27T21:39:06.000Z,-3.60
2023-01-27T21:41:53.217Z,-3.61
2023-01-27T21:44:44.500Z,-3.69
2023-01-27T21:47:19.241Z,-3.69
2023-01-27T21:50:03.395Z,-3.71
2023-01-27T21:52:42.593Z,-3.70
2023-01-27T21:55:31.521Z,-3.72
2023-01-27T21:57:59.837Z,-3.71
2023-01-27T22:00:29.154Z,-3.77
2023-01-27T22:02:59.864Z,-3.76
2023-01-27T22:05:29.150Z,-3.77
2023-01-27T22:07:58.384Z,-3.82
2023-01-27T22:10:29.121Z,-3.82
2023-01-27T22:13:00.417Z,-3.84
2023-01-27T22:15:29.484Z,-3.85
2023-01-27T22:17:59.195Z,-3.82
2023-01-27T22:20:28.307Z,-3.85
2023-01-27T22:22:56.903Z,-3.83
2023-01-27T22:25:27.688Z,-3.89
2023-01-27T22:27:56.777Z,-3.90
2023-01-27T22:30:25.018Z,-3.97
2023-01-27T22:32:54.707Z,-4.00
2023-01-27T22:35:24.770Z,-4.01
2023-01-27T22:37:53.507Z,-4.04
2023-01-27T22:40:23.673Z,-4.06
2023-01-27T22:42:52.278Z,-4.06
2023-01-27T22:45:20.529Z,-4.07
2023-01-27T22:47:50.211Z,-4.10
2023-01-27T22:50:19.783Z,-4.12
2023-01-27T22:52:48.859Z,-4.11
2023-01-27T22:55:17.163Z,-4.16
2023-01-27T22:57:45.695Z,-4.13
2023-01-27T23:00:14.648Z,-4.18
2023-01-27T23:02:46.290Z,-4.16
2023-01-27T23:05:16.440Z,-4.20
2023-01-27T23:07:47.407Z,-4.25
2023-01-27T23:10:15.814Z,-4.30
2023-01-27T23:12:44.128Z,-4.33
2023-01-27T23:15:13.172Z,-4.33
2023-01-27T23:17:42.597Z,-4.28
2023-01-27T23:20:11.463Z,-4.32
2023-01-27T23:22:40.386Z,-4.32
2023-01-27T23:25:09.649Z,-4.33
2023-01-27T23:27:38.791Z,-4.40
2023-01-27T23:30:11.526Z,-4.43
2023-01-27T23:32:41.191Z,-4.45
2023-01-27T23:35:10.144Z,-4.48
2023-01-27T23:37:38.860Z,-4.51
2023-01-27T23:40:08.349Z,-4.54
2023-01-27T23:42:36.575Z,-4.55
2023-01-27T23:45:08.116Z,-4.55
2023-01-27T23:47:36.519Z,-4.56
2023-01-27T23:50:05.692Z,-4.53
2023-01-27T23:52:37.210Z,-4.53
2023-01-27T23:55:07.667Z,-4.55
2023-01-27T23:57:39.804Z,-4.56
